Time;durP1;ratioP1;P1;durP2;ratioP2;P2;SDS_P1;SDS_P2;PMS_P1;PMS_P2;Temp;Humidity;BMP_temperature;BMP_pressure;BME280_temperature;BME280_humidity;BME280_pressure;Samples;Min_cycle;Max_cycle;Signal;HPM_P1;HPM_P2
2022/07/10 00:00:14;;;;;;;9.13;6.90;;;17.60;99.90;;;;;;5036805;28;20952;-72
2022/07/10 00:02:42;;;;;;;7.57;6.97;;;17.60;99.90;;;;;;5036032;28;20630;-73
2022/07/10 00:05:10;;;;;;;7.20;6.70;;;17.60;99.90;;;;;;5034129;28;21159;-72
2022/07/10 00:07:36;;;;;;;7.10;6.50;;;17.60;99.90;;;;;;5036440;28;20635;-73
2022/07/10 00:10:04;;;;;;;6.77;6.30;;;17.60;99.90;;;;;;5035922;28;20623;-72
2022/07/10 00:12:30;;;;;;;7.13;6.50;;;17.60;99.90;;;;;;5036135;28;21060;-72
2022/07/10 00:14:57;;;;;;;7.33;6.80;;;17.50;99.90;;;;;;5034807;28;20608;-72
2022/07/10 00:17:23;;;;;;;7.90;7.33;;;17.50;99.90;;;;;;5036012;28;20631;-72
2022/07/10 00:19:50;;;;;;;8.57;7.73;;;17.40;99.90;;;;;;5036051;28;20620;-72
2022/07/10 00:22:16;;;;;;;7.47;6.80;;;17.20;99.90;;;;;;5035603;28;20624;-72
2022/07/10 00:24:42;;;;;;;7.70;7.03;;;17.20;99.90;;;;;;5036116;28;20661;-72
2022/07/10 00:27:12;;;;;;;10.13;7.10;;;17.20;99.90;;;;;;5037959;28;20619;-72
2022/07/10 00:29:39;;;;;;;8.63;7.00;;;17.30;99.90;;;;;;5037463;28;20604;-72
2022/07/10 00:32:05;;;;;;;6.30;5.67;;;17.30;99.90;;;;;;5036458;28;20616;-72
2022/07/10 00:34:32;;;;;;;7.10;5.90;;;17.50;99.90;;;;;;5036569;28;20663;-73
2022/07/10 00:36:59;;;;;;;6.70;5.00;;;17.60;99.90;;;;;;5035779;28;20615;-72
2022/07/10 00:39:26;;;;;;;5.30;4.80;;;17.70;99.90;;;;;;5041627;28;20647;-72
2022/07/10 00:41:52;;;;;;;5.20;4.80;;;17.80;99.90;;;;;;5037482;28;20619;-72
2022/07/10 00:44:19;;;;;;;4.70;4.30;;;17.80;99.90;;;;;;5055951;28;20672;-72
2022/07/10 00:46:45;;;;;;;3.93;3.60;;;17.80;99.90;;;;;;5055656;28;20615;-72
2022/07/10 00:49:11;;;;;;;4.00;3.70;;;17.80;99.90;;;;;;5054906;28;20615;-73
2022/07/10 00:51:38;;;;;;;4.00;3.70;;;17.80;99.90;;;;;;5055970;28;20619;-72
2022/07/10 00:54:05;;;;;;;4.10;3.60;;;17.80;99.90;;;;;;5055562;28;20659;-72
2022/07/10 00:56:32;;;;;;;4.37;4.03;;;17.70;99.90;;;;;;5037954;28;20674;-72
2022/07/10 00:58:59;;;;;;;3.67;3.40;;;17.60;99.90;;;;;;5037400;28;21180;-72
2022/07/10 01:01:25;;;;;;;10.43;3.97;;;17.60;99.90;;;;;;5055774;28;20673;-72
2022/07/10 01:03:51;;;;;;;5.10;4.17;;;17.50;99.90;;;;;;5055844;28;20962;-72
2022/07/10 01:06:18;;;;;;;3.70;3.40;;;17.40;99.90;;;;;;5055659;28;20607;-72
2022/07/10 01:08:45;;;;;;;5.60;3.70;;;17.40;99.90;;;;;;5037056;28;20623;-72
2022/07/10 01:11:12;;;;;;;4.20;3.20;;;17.20;99.90;;;;;;5055466;28;20672;-72
2022/07/10 01:13:39;;;;;;;3.30;3.00;;;17.10;99.90;;;;;;5055503;28;20724;-72
2022/07/10 01:16:06;;;;;;;3.50;3.20;;;17.00;99.90;;;;;;5055433;28;21158;-72
2022/07/10 01:18:32;;;;;;;3.63;3.33;;;17.00;99.90;;;;;;5055840;28;20626;-72
2022/07/10 01:20:59;;;;;;;3.30;3.10;;;17.10;99.90;;;;;;5055881;28;20660;-72
2022/07/10 01:23:26;;;;;;;3.10;2.87;;;17.00;99.90;;;;;;5055314;28;20622;-72
2022/07/10 01:25:52;;;;;;;4.37;3.83;;;16.90;99.90;;;;;;5054448;28;20611;-72
2022/07/10 01:28:21;;;;;;;2.67;2.57;;;16.90;99.90;;;;;;5054686;28;20607;-72
2022/07/10 01:30:48;;;;;;;2.80;2.60;;;16.90;99.90;;;;;;5055319;28;20607;-72
2022/07/10 01:33:15;;;;;;;3.53;3.33;;;16.90;99.90;;;;;;5055348;28;20662;-72
2022/07/10 01:35:42;;;;;;;3.70;3.40;;;16.80;99.90;;;;;;5055107;28;20611;-72
2022/07/10 01:38:08;;;;;;;3.30;3.00;;;16.80;99.90;;;;;;5054071;28;20676;-72
2022/07/10 01:40:35;;;;;;;3.00;2.80;;;16.80;99.90;;;;;;5054945;28;20643;-73
2022/07/10 01:43:01;;;;;;;6.77;3.10;;;16.70;99.90;;;;;;5055326;28;20599;-72
2022/07/10 01:45:28;;;;;;;3.03;2.77;;;16.70;99.90;;;;;;5055018;28;20681;-72
2022/07/10 01:47:55;;;;;;;3.10;2.90;;;16.70;99.90;;;;;;5037664;28;21008;-72
2022/07/10 01:50:21;;;;;;;6.83;2.50;;;16.60;99.90;;;;;;5054406;28;20611;-71
2022/07/10 01:52:47;;;;;;;5.40;2.77;;;16.60;99.90;;;;;;5054874;28;20662;-71
2022/07/10 01:55:14;;;;;;;2.60;2.17;;;16.50;99.90;;;;;;5054596;28;21029;-71
2022/07/10 01:57:41;;;;;;;2.60;2.23;;;16.50;99.90;;;;;;5054385;28;20631;-71
2022/07/10 02:00:11;;;;;;;8.70;2.33;;;16.50;99.90;;;;;;5054563;28;20599;-71
2022/07/10 02:02:37;;;;;;;4.53;3.27;;;16.40;99.90;;;;;;5038123;28;20622;-71
2022/07/10 02:05:04;;;;;;;3.30;2.53;;;16.40;99.90;;;;;;5054577;28;20607;-72
2022/07/10 02:07:30;;;;;;;5.57;2.70;;;16.40;99.90;;;;;;5053593;28;20615;-71
2022/07/10 02:09:57;;;;;;;2.73;2.50;;;16.40;99.90;;;;;;5054111;28;20610;-72
2022/07/10 02:12:23;;;;;;;4.23;2.53;;;16.30;99.90;;;;;;5054598;28;20614;-71
2022/07/10 02:14:50;;;;;;;3.33;2.30;;;16.30;99.90;;;;;;5054114;28;20658;-71
2022/07/10 02:17:17;;;;;;;2.53;2.30;;;16.30;99.90;;;;;;5036256;28;20676;-71
2022/07/10 02:19:43;;;;;;;4.00;2.53;;;16.20;99.90;;;;;;5054332;28;21130;-71
2022/07/10 02:22:10;;;;;;;4.13;2.77;;;16.20;99.90;;;;;;5054455;28;20611;-71
2022/07/10 02:24:36;;;;;;;6.63;2.70;;;16.20;99.90;;;;;;5054604;28;20649;-71
2022/07/10 02:27:03;;;;;;;3.10;2.77;;;16.10;99.90;;;;;;5053713;28;20619;-71
2022/07/10 02:29:29;;;;;;;4.20;2.30;;;16.10;99.90;;;;;;5054840;28;20588;-71
2022/07/10 02:31:56;;;;;;;2.60;2.40;;;16.10;99.90;;;;;;5054872;28;20611;-71
2022/07/10 02:34:22;;;;;;;2.57;2.37;;;16.10;99.90;;;;;;5053891;28;21001;-71
2022/07/10 02:36:50;;;;;;;4.23;2.90;;;16.10;99.90;;;;;;5054952;28;20611;-71
2022/07/10 02:39:16;;;;;;;2.97;2.17;;;16.00;99.90;;;;;;5054080;28;20639;-72
2022/07/10 02:41:43;;;;;;;2.80;2.30;;;16.00;99.90;;;;;;5053921;28;20626;-71
2022/07/10 02:44:09;;;;;;;4.27;2.43;;;16.00;99.90;;;;;;5036049;28;20662;-71
2022/07/10 02:46:36;;;;;;;3.67;2.13;;;15.90;99.90;;;;;;5053939;28;20618;-72
2022/07/10 02:49:04;;;;;;;2.83;2.63;;;15.90;99.90;;;;;;5054337;28;20610;-72
2022/07/10 02:51:30;;;;;;;3.57;2.60;;;15.90;99.90;;;;;;5036138;28;20746;-72
2022/07/10 02:53:56;;;;;;;3.57;2.87;;;15.90;99.90;;;;;;5054533;28;20591;-72
2022/07/10 02:56:23;;;;;;;2.93;2.57;;;15.80;99.90;;;;;;5035822;28;20643;-72
2022/07/10 02:58:49;;;;;;;3.70;2.50;;;15.80;99.90;;;;;;5054451;28;20603;-72
2022/07/10 03:01:15;;;;;;;4.60;2.23;;;15.80;99.90;;;;;;5054584;28;20931;-72
2022/07/10 03:03:41;;;;;;;3.60;2.57;;;15.70;99.90;;;;;;5056366;28;20654;-72
2022/07/10 03:06:08;;;;;;;2.70;2.50;;;15.70;99.90;;;;;;5058112;28;20603;-72
2022/07/10 03:08:35;;;;;;;3.10;2.43;;;15.70;99.90;;;;;;5057546;28;20982;-72
2022/07/10 03:11:01;;;;;;;5.70;2.27;;;15.70;99.90;;;;;;5040317;28;20607;-72
2022/07/10 03:13:27;;;;;;;2.27;2.17;;;15.70;99.90;;;;;;5057809;28;20618;-72
2022/07/10 03:15:55;;;;;;;6.30;2.23;;;15.70;99.90;;;;;;5058190;28;21180;-72
2022/07/10 03:18:21;;;;;;;5.43;2.63;;;15.60;99.90;;;;;;5058326;28;20614;-72
2022/07/10 03:20:47;;;;;;;3.07;2.77;;;15.60;99.90;;;;;;5058678;28;20610;-72
2022/07/10 03:23:14;;;;;;;2.50;2.23;;;15.60;99.90;;;;;;5057238;28;21026;-72
2022/07/10 03:25:40;;;;;;;3.20;2.73;;;15.50;99.90;;;;;;5057616;28;20615;-72
2022/07/10 03:28:06;;;;;;;3.97;2.73;;;15.40;99.90;;;;;;5040077;28;20611;-72
2022/07/10 03:30:33;;;;;;;6.10;2.60;;;15.50;99.90;;;;;;5040009;28;20610;-72
2022/07/10 03:32:59;;;;;;;3.83;2.30;;;15.40;99.90;;;;;;5057506;28;20599;-72
2022/07/10 03:35:25;;;;;;;6.13;3.20;;;15.30;99.90;;;;;;5057314;28;20603;-72
2022/07/10 03:37:52;;;;;;;4.53;2.37;;;15.30;99.90;;;;;;5057446;28;20607;-72
2022/07/10 03:40:18;;;;;;;4.20;2.07;;;15.20;99.90;;;;;;5057350;28;20642;-72
2022/07/10 03:42:45;;;;;;;5.40;2.77;;;15.20;99.90;;;;;;5057361;28;20614;-72
2022/07/10 03:45:11;;;;;;;6.10;2.63;;;15.20;99.90;;;;;;5039497;28;20650;-72
2022/07/10 03:47:37;;;;;;;2.83;2.03;;;15.20;99.90;;;;;;5057434;28;20603;-72
2022/07/10 03:50:04;;;;;;;4.13;2.50;;;15.10;99.90;;;;;;5056938;28;20607;-72
2022/07/10 03:52:31;;;;;;;3.73;2.37;;;15.10;99.90;;;;;;5038776;28;20598;-72
2022/07/10 03:54:57;;;;;;;5.50;2.67;;;15.10;99.90;;;;;;5057272;28;20713;-72
2022/07/10 04:00:09;;;;;;;5.30;2.70;;;15.00;99.90;;;;;;5057131;28;20583;-72
2022/07/10 04:02:36;;;;;;;4.50;2.67;;;15.00;99.90;;;;;;5056864;28;20589;-72
2022/07/10 04:05:06;;;;;;;5.40;2.10;;;15.00;99.90;;;;;;5055890;28;20684;-72
2022/07/10 04:07:32;;;;;;;2.10;1.97;;;14.90;99.90;;;;;;5037874;28;20669;-72
2022/07/10 04:09:59;;;;;;;3.03;2.60;;;14.90;99.90;;;;;;5056500;28;20611;-73
2022/07/10 04:12:25;;;;;;;7.13;2.33;;;15.00;99.90;;;;;;5056039;28;20958;-72
2022/07/10 04:14:52;;;;;;;6.20;3.00;;;15.00;99.90;;;;;;5055812;28;20627;-72
2022/07/10 04:17:18;;;;;;;3.83;2.20;;;15.10;99.90;;;;;;5038849;28;20626;-72
2022/07/10 04:19:46;;;;;;;5.10;2.83;;;15.00;99.90;;;;;;5056468;28;20673;-72
2022/07/10 04:22:12;;;;;;;5.10;2.30;;;15.00;99.90;;;;;;5056810;28;20714;-72
2022/07/10 04:24:39;;;;;;;2.90;2.17;;;15.00;99.90;;;;;;5038502;28;20666;-72
2022/07/10 04:27:06;;;;;;;6.40;2.63;;;15.10;99.90;;;;;;5056593;28;20583;-72
2022/07/10 04:29:33;;;;;;;5.90;3.43;;;15.10;99.90;;;;;;5056468;28;20589;-72
2022/07/10 04:31:59;;;;;;;3.57;2.00;;;15.10;99.90;;;;;;5057117;28;20585;-72
2022/07/10 04:34:26;;;;;;;5.20;2.60;;;15.20;99.90;;;;;;5056435;28;21014;-72
2022/07/10 04:36:52;;;;;;;8.30;2.40;;;15.20;99.90;;;;;;5056455;28;20657;-72
2022/07/10 04:39:19;;;;;;;2.43;2.03;;;15.30;99.90;;;;;;5055873;28;20651;-72
2022/07/10 04:41:45;;;;;;;3.70;2.30;;;15.40;99.90;;;;;;5056151;28;20626;-72
2022/07/10 04:44:13;;;;;;;3.57;1.70;;;15.50;99.90;;;;;;5055712;28;20654;-72
2022/07/10 04:46:39;;;;;;;4.30;2.13;;;15.50;99.90;;;;;;5036737;28;20626;-72
2022/07/10 04:49:06;;;;;;;6.00;2.77;;;15.60;99.90;;;;;;5055511;28;20615;-72
2022/07/10 04:51:32;;;;;;;2.33;1.97;;;15.60;99.90;;;;;;5055673;28;20603;-72
2022/07/10 04:53:59;;;;;;;5.00;2.10;;;15.70;99.90;;;;;;5055606;28;20969;-72
2022/07/10 04:56:25;;;;;;;4.13;2.10;;;15.70;99.90;;;;;;5038149;28;20643;-72
2022/07/10 04:58:52;;;;;;;3.43;2.43;;;15.80;99.90;;;;;;5055503;28;20603;-72
2022/07/10 05:01:19;;;;;;;5.27;2.40;;;15.80;99.90;;;;;;5055396;28;21204;-72
2022/07/10 05:03:46;;;;;;;3.10;2.10;;;15.90;99.90;;;;;;5054798;28;20659;-73
2022/07/10 05:06:12;;;;;;;4.17;2.30;;;16.00;99.90;;;;;;5055014;28;20585;-73
2022/07/10 05:08:39;;;;;;;3.00;1.83;;;16.00;99.90;;;;;;5055367;28;21179;-71
2022/07/10 05:11:06;;;;;;;5.30;2.93;;;16.10;99.90;;;;;;5055768;28;20607;-72
2022/07/10 05:13:32;;;;;;;3.93;2.27;;;16.20;99.90;;;;;;5055530;28;20664;-72
2022/07/10 05:15:59;;;;;;;2.70;2.47;;;16.30;99.90;;;;;;5037391;28;20619;-71
2022/07/10 05:18:25;;;;;;;3.80;2.00;;;16.40;99.90;;;;;;5021009;28;20620;-72
2022/07/10 05:20:52;;;;;;;3.10;2.20;;;16.50;99.90;;;;;;5055510;28;20660;-73
2022/07/10 05:23:18;;;;;;;4.10;2.63;;;16.40;99.90;;;;;;5054615;28;20653;-72
2022/07/10 05:25:44;;;;;;;4.40;2.87;;;16.40;99.90;;;;;;5053939;28;20607;-71
2022/07/10 05:28:14;;;;;;;10.30;2.23;;;16.50;99.90;;;;;;5055121;28;20665;-72
2022/07/10 05:30:41;;;;;;;4.17;2.17;;;16.60;99.90;;;;;;5054678;28;20606;-72
2022/07/10 05:33:07;;;;;;;2.97;1.90;;;16.70;99.90;;;;;;5055283;28;20631;-72
2022/07/10 05:35:34;;;;;;;8.10;2.83;;;16.60;99.90;;;;;;5054667;28;20757;-72
2022/07/10 05:38:00;;;;;;;5.80;2.80;;;16.60;99.90;;;;;;5054806;28;21161;-72
2022/07/10 05:40:27;;;;;;;11.27;2.20;;;16.50;99.90;;;;;;5054798;28;20651;-72
2022/07/10 05:42:54;;;;;;;4.10;2.40;;;16.60;99.90;;;;;;5054664;28;21020;-72
2022/07/10 05:45:20;;;;;;;4.20;1.93;;;16.60;99.90;;;;;;5055013;28;20661;-72
2022/07/10 05:47:50;;;;;;;3.10;2.50;;;16.60;99.90;;;;;;5055699;28;20611;-72
2022/07/10 05:50:16;;;;;;;2.67;2.47;;;16.70;99.90;;;;;;5055471;28;21034;-73
2022/07/10 05:52:43;;;;;;;7.50;2.77;;;16.60;99.90;;;;;;5054543;28;20617;-73
2022/07/10 05:55:09;;;;;;;3.17;2.10;;;16.70;99.90;;;;;;5036655;28;20973;-72
2022/07/10 05:57:36;;;;;;;7.83;2.03;;;16.80;99.90;;;;;;5054711;28;21035;-72
2022/07/10 06:00:05;;;;;;;2.17;1.97;;;16.70;99.90;;;;;;5054385;28;20623;-72
2022/07/10 06:02:31;;;;;;;3.93;1.90;;;16.70;99.90;;;;;;5054574;28;20669;-72
2022/07/10 06:04:58;;;;;;;2.20;1.53;;;16.70;99.90;;;;;;5035300;28;20717;-72
2022/07/10 06:07:27;;;;;;;5.27;2.50;;;16.80;99.90;;;;;;5054426;28;21176;-71
2022/07/10 06:09:55;;;;;;;2.67;2.03;;;16.90;99.90;;;;;;5053971;28;20627;-72
2022/07/10 06:12:21;;;;;;;4.47;1.90;;;17.00;99.90;;;;;;5054227;28;21157;-71
2022/07/10 06:14:48;;;;;;;2.70;2.27;;;17.00;99.90;;;;;;5054540;28;20629;-71
2022/07/10 06:17:14;;;;;;;5.87;1.97;;;17.10;99.90;;;;;;5054634;28;20611;-73
2022/07/10 06:19:41;;;;;;;4.77;2.00;;;17.10;99.90;;;;;;5055074;28;20611;-72
2022/07/10 06:24:53;;;;;;;3.30;1.87;;;17.10;99.90;;;;;;5054484;28;21169;-72
2022/07/10 06:27:19;;;;;;;2.37;1.70;;;17.10;99.90;;;;;;5036454;28;20681;-72
2022/07/10 06:29:47;;;;;;;2.73;1.57;;;17.20;99.90;;;;;;5055606;28;20611;-72
2022/07/10 06:32:13;;;;;;;3.73;1.80;;;17.20;99.90;;;;;;5038288;28;20745;-73
2022/07/10 06:34:39;;;;;;;3.93;1.97;;;17.40;99.90;;;;;;5054833;28;20615;-72
2022/07/10 06:37:06;;;;;;;3.53;1.83;;;17.60;99.90;;;;;;5038613;28;20741;-72
2022/07/10 06:39:36;;;;;;;1.80;1.70;;;17.50;99.90;;;;;;5023101;28;20669;-73
2022/07/10 06:42:04;;;;;;;2.50;2.07;;;17.40;99.90;;;;;;5058836;28;20575;-72
2022/07/10 06:44:30;;;;;;;3.00;2.10;;;17.40;99.90;;;;;;5040019;28;20662;-72
2022/07/10 06:49:43;;;;;;;4.13;1.90;;;17.60;99.90;;;;;;5058711;28;21106;-72
2022/07/10 06:52:10;;;;;;;4.07;2.20;;;17.70;99.90;;;;;;5059980;28;20610;-71
2022/07/10 06:54:38;;;;;;;2.50;2.10;;;17.40;99.90;;;;;;5059211;28;20674;-71
2022/07/10 06:57:06;;;;;;;2.60;2.00;;;17.50;99.90;;;;;;5058016;28;20639;-73
2022/07/10 06:59:33;;;;;;;2.63;2.00;;;17.60;99.90;;;;;;5059326;28;20713;-73
2022/07/10 07:02:00;;;;;;;2.50;2.30;;;17.50;99.90;;;;;;5040915;28;21188;-73
2022/07/10 07:04:27;;;;;;;2.50;1.90;;;17.70;99.90;;;;;;5059176;28;20661;-71
2022/07/10 07:06:54;;;;;;;2.27;2.00;;;17.50;99.90;;;;;;5059357;28;20703;-74
2022/07/10 07:09:22;;;;;;;6.70;2.40;;;17.70;99.90;;;;;;5058882;28;20603;-74
2022/07/10 07:11:49;;;;;;;2.30;2.10;;;17.70;99.90;;;;;;5040668;28;20637;-73
2022/07/10 07:14:16;;;;;;;4.87;1.93;;;17.80;99.90;;;;;;5059067;28;20630;-74
2022/07/10 07:16:44;;;;;;;5.70;2.00;;;18.00;99.90;;;;;;5059103;28;21300;-73
2022/07/10 07:19:17;;;;;;;4.97;2.30;;;18.20;99.90;;;;;;5058891;28;20688;-73
2022/07/10 07:24:30;;;;;;;2.60;2.40;;;18.10;99.90;;;;;;5060029;28;21049;-74
2022/07/10 07:27:02;;;;;;;2.40;2.20;;;18.30;99.90;;;;;;5059935;28;20710;-74
2022/07/10 07:29:30;;;;;;;6.47;2.20;;;18.20;99.90;;;;;;5041355;28;20654;-74
2022/07/10 07:31:58;;;;;;;3.90;2.50;;;18.30;99.90;;;;;;5042220;28;21244;-74
2022/07/10 07:34:26;;;;;;;2.40;2.20;;;18.30;99.90;;;;;;5059613;28;20690;-73
2022/07/10 07:36:55;;;;;;;4.40;3.20;;;18.30;99.90;;;;;;5041018;28;20764;-73
2022/07/10 07:39:28;;;;;;;5.10;2.83;;;18.50;99.90;;;;;;5058399;28;20735;-73
2022/07/10 07:41:54;;;;;;;4.27;2.50;;;18.30;99.90;;;;;;5039957;28;20614;-72
2022/07/10 07:44:20;;;;;;;3.13;2.93;;;18.30;99.90;;;;;;5058280;28;20661;-72
2022/07/10 07:46:47;;;;;;;2.70;2.60;;;18.30;99.90;;;;;;5058193;28;20611;-73
2022/07/10 07:49:13;;;;;;;5.10;3.13;;;18.50;99.90;;;;;;5057226;28;20706;-71
2022/07/10 07:51:40;;;;;;;3.17;3.00;;;18.50;99.90;;;;;;5039900;28;20595;-72
2022/07/10 07:54:06;;;;;;;3.07;2.87;;;18.70;99.90;;;;;;5040233;28;20623;-73
2022/07/10 07:56:33;;;;;;;3.00;2.90;;;18.60;99.90;;;;;;5057955;28;21066;-73
2022/07/10 07:58:59;;;;;;;5.33;2.87;;;18.70;99.90;;;;;;5058303;28;20626;-73
2022/07/10 08:01:25;;;;;;;3.53;3.23;;;18.70;99.90;;;;;;5057338;28;20603;-71
2022/07/10 08:03:53;;;;;;;3.03;2.90;;;18.60;99.90;;;;;;5057707;28;20656;-72
2022/07/10 08:06:20;;;;;;;5.20;3.10;;;19.00;99.90;;;;;;5056787;28;20618;-73
2022/07/10 08:08:46;;;;;;;3.50;3.20;;;19.00;99.90;;;;;;5057134;28;20698;-73
2022/07/10 08:11:13;;;;;;;3.37;3.13;;;19.00;99.90;;;;;;5057763;28;20603;-74
2022/07/10 08:13:39;;;;;;;3.53;3.07;;;18.90;99.90;;;;;;5056921;28;20705;-74
2022/07/10 08:16:06;;;;;;;3.30;3.10;;;19.10;99.90;;;;;;5057337;28;21152;-74
2022/07/10 08:18:34;;;;;;;4.90;3.17;;;19.00;99.90;;;;;;5057843;28;20623;-74
2022/07/10 08:21:00;;;;;;;3.20;3.00;;;18.90;99.90;;;;;;5056618;28;20615;-73
2022/07/10 08:23:26;;;;;;;3.47;3.27;;;19.40;99.90;;;;;;5057002;28;20606;-73
2022/07/10 08:25:53;;;;;;;3.50;3.30;;;19.00;99.90;;;;;;5056208;28;20666;-73
2022/07/10 08:28:20;;;;;;;3.23;3.13;;;19.10;99.90;;;;;;5056552;28;20761;-73
2022/07/10 08:30:46;;;;;;;7.40;3.90;;;19.20;99.90;;;;;;5038275;28;20958;-73
2022/07/10 08:33:13;;;;;;;4.83;3.40;;;19.10;99.90;;;;;;5056170;28;20626;-74
2022/07/10 08:35:40;;;;;;;3.77;3.43;;;19.20;99.90;;;;;;5055513;28;20607;-74
2022/07/10 08:38:08;;;;;;;4.10;3.80;;;19.30;99.90;;;;;;5055579;28;20968;-73
2022/07/10 08:40:38;;;;;;;3.73;3.50;;;19.70;99.90;;;;;;5055917;28;20649;-73
2022/07/10 08:43:06;;;;;;;3.33;3.13;;;19.90;99.90;;;;;;5037950;28;20711;-74
2022/07/10 08:45:33;;;;;;;4.07;3.77;;;19.50;99.90;;;;;;5055747;28;21013;-72
2022/07/10 08:48:05;;;;;;;3.90;3.60;;;19.00;99.90;;;;;;5055402;28;20611;-74
2022/07/10 08:50:42;;;;;;;4.20;3.80;;;18.90;99.90;;;;;;5055023;28;20619;-74
2022/07/10 08:53:30;;;;;;;3.97;3.53;;;19.10;99.90;;;;;;5055214;28;20594;-74
2022/07/10 08:56:00;;;;;;;4.40;4.13;;;19.20;99.90;;;;;;5055541;28;20635;-74
2022/07/10 08:58:27;;;;;;;4.97;4.50;;;19.20;99.90;;;;;;5054886;28;20588;-74
2022/07/10 09:00:54;;;;;;;4.33;4.03;;;19.30;99.90;;;;;;5035964;28;20623;-74
2022/07/10 09:03:20;;;;;;;4.27;4.03;;;19.30;99.90;;;;;;5054930;28;20619;-72
2022/07/10 09:05:47;;;;;;;4.23;3.93;;;19.70;99.90;;;;;;5054869;28;20701;-74
2022/07/10 09:08:28;;;;;;;4.23;3.80;;;19.50;99.90;;;;;;5054954;28;20975;-74
2022/07/10 09:11:17;;;;;;;4.20;4.00;;;19.50;99.90;;;;;;5056077;28;20731;-75
2022/07/10 09:13:55;;;;;;;4.70;3.80;;;19.50;99.90;;;;;;5055969;28;20603;-74
2022/07/10 09:16:27;;;;;;;4.40;4.10;;;19.30;99.90;;;;;;5055399;28;20614;-74
2022/07/10 09:18:54;;;;;;;4.50;4.20;;;19.40;99.90;;;;;;5055577;28;20582;-74
2022/07/10 09:21:22;;;;;;;4.73;4.33;;;19.70;99.90;;;;;;5055621;28;20619;-74
2022/07/10 09:23:49;;;;;;;5.27;4.93;;;20.10;99.90;;;;;;5037170;28;20631;-73
2022/07/10 09:26:16;;;;;;;4.30;4.10;;;20.00;99.90;;;;;;5054625;28;20662;-73
2022/07/10 09:28:42;;;;;;;7.93;4.87;;;20.20;99.90;;;;;;5054954;28;20611;-73
2022/07/10 09:31:09;;;;;;;4.43;4.23;;;20.10;99.90;;;;;;5038071;28;20719;-73
2022/07/10 09:33:37;;;;;;;4.57;4.27;;;20.20;99.90;;;;;;5054856;28;20669;-74
2022/07/10 09:36:10;;;;;;;4.83;4.50;;;20.50;99.90;;;;;;5054070;28;20935;-74
2022/07/10 09:38:42;;;;;;;4.77;4.50;;;20.20;99.90;;;;;;5055379;28;20580;-74
2022/07/10 09:41:28;;;;;;;4.90;4.20;;;20.20;99.90;;;;;;5054203;28;20579;-74
2022/07/10 09:43:55;;;;;;;4.43;4.23;;;20.50;99.90;;;;;;5054023;28;20590;-75
2022/07/10 09:46:24;;;;;;;5.07;4.67;;;20.40;99.90;;;;;;5054647;28;20646;-74
2022/07/10 09:49:20;;;;;;;4.83;4.30;;;20.20;99.90;;;;;;5055409;28;20611;-74
2022/07/10 09:51:47;;;;;;;5.40;4.90;;;20.40;99.90;;;;;;5034588;28;20734;-75
2022/07/10 09:54:14;;;;;;;5.30;4.83;;;20.30;99.90;;;;;;5055774;28;21303;-74
2022/07/10 09:56:50;;;;;;;4.20;3.80;;;20.40;99.90;;;;;;5036848;28;21215;-75
2022/07/10 09:59:19;;;;;;;4.90;4.60;;;20.40;99.90;;;;;;5037139;28;20625;-75
2022/07/10 10:01:50;;;;;;;4.67;4.37;;;20.60;99.90;;;;;;5036734;28;20615;-75
2022/07/10 10:04:24;;;;;;;4.90;4.47;;;20.60;99.90;;;;;;5055285;28;20656;-77
2022/07/10 10:06:53;;;;;;;4.40;4.30;;;20.20;99.90;;;;;;5054932;28;21065;-75
2022/07/10 10:09:41;;;;;;;6.00;4.73;;;20.50;99.90;;;;;;5021325;28;21038;-74
2022/07/10 10:12:17;;;;;;;4.30;4.00;;;20.90;99.90;;;;;;5035945;28;21138;-74
2022/07/10 10:14:44;;;;;;;4.80;4.50;;;21.20;99.90;;;;;;5036696;28;20702;-75
2022/07/10 10:17:17;;;;;;;4.07;3.87;;;21.20;99.90;;;;;;5055288;28;20623;-74
2022/07/10 10:22:35;;;;;;;5.07;4.50;;;21.30;99.90;;;;;;5040710;28;20613;-74
2022/07/10 10:25:03;;;;;;;4.53;4.30;;;21.40;99.90;;;;;;5053195;28;20658;-73
2022/07/10 10:27:31;;;;;;;5.03;4.70;;;21.30;99.90;;;;;;5034995;28;20619;-73
2022/07/10 10:29:58;;;;;;;4.70;4.50;;;21.30;99.90;;;;;;5035353;28;20719;-74
2022/07/10 10:32:24;;;;;;;4.63;4.33;;;21.50;99.90;;;;;;5035126;28;20608;-74
2022/07/10 10:34:57;;;;;;;5.10;4.60;;;21.80;99.90;;;;;;5053799;28;20623;-73
2022/07/10 10:37:37;;;;;;;4.83;4.53;;;22.00;99.90;;;;;;5053958;28;20622;-73
2022/07/10 10:40:53;;;;;;;4.80;4.50;;;21.50;99.90;;;;;;5036618;28;20650;-74
2022/07/10 10:43:23;;;;;;;5.33;4.73;;;21.20;99.90;;;;;;5013275;28;20698;-74
2022/07/10 10:45:51;;;;;;;4.97;4.60;;;21.40;99.90;;;;;;5036270;28;21077;-72
2022/07/10 10:48:21;;;;;;;5.30;4.90;;;21.60;99.90;;;;;;5037182;28;20620;-73
2022/07/10 10:50:51;;;;;;;5.00;4.60;;;21.40;99.90;;;;;;5053643;28;20630;-74
2022/07/10 10:53:28;;;;;;;5.00;4.73;;;21.50;99.90;;;;;;5053463;28;20622;-73
2022/07/10 10:56:22;;;;;;;5.50;4.90;;;21.80;99.90;;;;;;5053381;28;21000;-73
2022/07/10 10:58:48;;;;;;;5.60;5.20;;;21.80;99.90;;;;;;5049351;28;20995;-73
2022/07/10 11:01:21;;;;;;;5.77;5.37;;;21.90;99.90;;;;;;5035188;28;20716;-74
2022/07/10 11:04:14;;;;;;;5.07;4.70;;;22.20;99.90;;;;;;5052308;28;21170;-74
2022/07/10 11:06:52;;;;;;;5.10;4.80;;;22.10;99.90;;;;;;5054285;28;21072;-73
2022/07/10 11:09:26;;;;;;;4.63;4.37;;;21.80;99.90;;;;;;5054272;28;20621;-73
2022/07/10 11:12:02;;;;;;;5.43;5.03;;;21.90;99.90;;;;;;5053866;28;20611;-74
2022/07/10 11:14:30;;;;;;;5.50;5.10;;;21.70;99.90;;;;;;5054150;28;20721;-72
2022/07/10 11:16:57;;;;;;;5.60;5.20;;;21.90;99.90;;;;;;5053888;28;20637;-72
2022/07/10 11:19:31;;;;;;;5.30;4.90;;;22.00;99.90;;;;;;5052741;28;21013;-73
2022/07/10 11:22:07;;;;;;;6.07;5.13;;;22.30;99.90;;;;;;5052780;28;20571;-72
2022/07/10 11:24:55;;;;;;;6.23;5.50;;;22.20;99.90;;;;;;5055028;28;20598;-72
2022/07/10 11:27:48;;;;;;;5.47;5.17;;;23.00;99.90;;;;;;5056194;28;20686;-73
2022/07/10 11:30:15;;;;;;;5.00;4.70;;;23.40;99.90;;;;;;5059040;28;20630;-73
2022/07/10 11:32:41;;;;;;;5.77;5.37;;;23.40;99.90;;;;;;5057962;28;20603;-72
2022/07/10 11:35:12;;;;;;;6.20;5.60;;;23.80;99.90;;;;;;5056126;28;20622;-73
2022/07/10 11:37:53;;;;;;;5.90;5.60;;;24.60;99.90;;;;;;5056263;28;20607;-73
2022/07/10 11:40:21;;;;;;;6.30;5.80;;;24.80;99.90;;;;;;5055712;28;20646;-73
2022/07/10 11:42:55;;;;;;;6.77;6.47;;;24.50;99.90;;;;;;5055875;28;20626;-74
2022/07/10 11:45:22;;;;;;;6.23;5.90;;;25.50;99.90;;;;;;5055812;28;20718;-72
2022/07/10 11:47:49;;;;;;;5.47;5.27;;;24.80;99.90;;;;;;5055570;28;20615;-71
2022/07/10 11:50:17;;;;;;;6.17;5.70;;;24.10;99.90;;;;;;5056602;28;20614;-73
2022/07/10 11:52:45;;;;;;;7.93;6.57;;;23.80;99.90;;;;;;5022416;28;20701;-73
2022/07/10 11:55:20;;;;;;;5.87;5.47;;;24.60;99.90;;;;;;5055849;28;21378;-74
2022/07/10 11:57:50;;;;;;;5.20;5.07;;;24.90;99.90;;;;;;5038001;28;20661;-74
2022/07/10 12:00:29;;;;;;;5.90;5.60;;;25.30;99.90;;;;;;5055520;28;21161;-73
2022/07/10 12:03:14;;;;;;;5.90;5.70;;;25.50;99.90;;;;;;5056338;28;20610;-73
2022/07/10 12:05:41;;;;;;;5.73;5.53;;;25.60;99.90;;;;;;5056001;28;20642;-72
2022/07/10 12:08:08;;;;;;;5.97;5.57;;;25.20;99.90;;;;;;5055197;28;20638;-72
2022/07/10 12:10:34;;;;;;;6.40;6.10;;;25.10;99.90;;;;;;5056355;28;20611;-72
2022/07/10 12:13:12;;;;;;;5.30;5.03;;;24.40;99.90;;;;;;5056812;28;20611;-72
2022/07/10 12:15:48;;;;;;;9.50;5.30;;;24.10;99.90;;;;;;5057043;28;20615;-72
2022/07/10 12:18:22;;;;;;;6.20;5.77;;;23.70;99.90;;;;;;5038498;28;20968;-73
2022/07/10 12:20:52;;;;;;;6.20;5.80;;;24.30;99.90;;;;;;5055449;28;20613;-72
2022/07/10 12:23:20;;;;;;;6.50;6.10;;;25.10;99.90;;;;;;5056500;28;20583;-75
2022/07/10 12:25:49;;;;;;;6.50;6.20;;;26.10;99.90;;;;;;5039269;28;20639;-73
2022/07/10 12:28:16;;;;;;;6.60;6.10;;;26.00;99.90;;;;;;5054373;28;20619;-74
2022/07/10 12:30:51;;;;;;;9.40;6.57;;;26.00;99.90;;;;;;5055813;28;20626;-73
2022/07/10 12:33:22;;;;;;;6.37;6.07;;;26.40;99.90;;;;;;5055437;28;20626;-73
2022/07/10 12:35:56;;;;;;;6.40;6.00;;;25.70;99.90;;;;;;5054898;28;20615;-73
2022/07/10 12:38:27;;;;;;;6.47;6.10;;;25.80;99.90;;;;;;5055240;28;21110;-73
2022/07/10 12:41:11;;;;;;;8.93;6.30;;;26.40;99.90;;;;;;5054457;28;20658;-74
2022/07/10 12:43:38;;;;;;;6.37;6.07;;;25.90;99.90;;;;;;5036844;28;20958;-73
2022/07/10 12:46:19;;;;;;;6.03;5.67;;;27.10;99.90;;;;;;5036403;28;20658;-73
2022/07/10 12:49:04;;;;;;;6.70;6.30;;;26.40;99.90;;;;;;5054125;28;20619;-73
2022/07/10 12:51:35;;;;;;;6.83;6.47;;;27.50;99.90;;;;;;5054458;28;20662;-74
2022/07/10 12:54:01;;;;;;;6.60;6.00;;;27.60;99.90;;;;;;5054516;28;20972;-72
2022/07/10 12:56:37;;;;;;;7.03;6.63;;;27.20;99.90;;;;;;5053713;28;20654;-73
2022/07/10 12:59:14;;;;;;;6.70;6.40;;;27.30;99.90;;;;;;5054164;28;20611;-72
2022/07/10 13:01:44;;;;;;;6.27;6.07;;;27.50;99.90;;;;;;5053954;28;21109;-72
2022/07/10 13:04:11;;;;;;;6.50;6.20;;;27.10;99.90;;;;;;5053720;28;20615;-72
2022/07/10 13:06:40;;;;;;;7.00;6.60;;;27.10;99.90;;;;;;5053611;28;20666;-73